createdAt,value
2022-12-25T00:01:32.522Z,68.58
2022-12-25T00:05:40.288Z,68.90
2022-12-25T00:09:43.791Z,68.70
2022-12-25T00:13:47.404Z,68.14
2022-12-25T00:17:51.043Z,68.84
2022-12-25T00:21:55.909Z,69.06
2022-12-25T00:25:59.783Z,68.99
2022-12-25T00:30:03.414Z,68.57
2022-12-25T00:34:06.894Z,68.03
2022-12-25T00:38:12.019Z,69.04
2022-12-25T00:42:30.584Z,69.48
2022-12-25T00:46:34.280Z,69.09
2022-12-25T00:50:40.010Z,68.63
2022-12-25T00:54:45.078Z,68.96
2022-12-25T00:58:48.599Z,68.68
2022-12-25T01:02:52.177Z,68.92
2022-12-25T01:06:56.080Z,68.84
2022-12-25T01:11:04.015Z,69.78
2022-12-25T01:15:09.819Z,69.37
2022-12-25T01:19:13.392Z,69.95
2022-12-25T01:23:17.367Z,69.40
2022-12-25T01:27:22.321Z,69.39
2022-12-25T01:31:26.627Z,69.81
2022-12-25T01:35:30.466Z,69.34
2022-12-25T01:39:34.059Z,69.29
2022-12-25T01:44:00.286Z,69.76
2022-12-25T01:48:07.668Z,69.38
2022-12-25T01:52:17.532Z,69.43
2022-12-25T01:56:26.780Z,68.83
2022-12-25T02:00:31.941Z,68.46
2022-12-25T02:04:43.961Z,69.07
2022-12-25T02:08:50.347Z,68.60
2022-12-25T02:12:54.660Z,69.73
2022-12-25T02:17:07.715Z,69.55
2022-12-25T02:21:28.129Z,70.22
2022-12-25T02:25:44.907Z,70.24
2022-12-25T02:30:01.560Z,70.28
2022-12-25T02:34:13.025Z,70.23
2022-12-25T02:38:21.841Z,70.28
2022-12-25T02:43:00.177Z,70.60
2022-12-25T02:47:25.087Z,70.59
2022-12-25T02:51:49.071Z,70.45
2022-12-25T02:56:11.586Z,70.83
2022-12-25T03:00:39.118Z,70.91
2022-12-25T03:05:03.244Z,71.13
2022-12-25T03:09:27.320Z,71.39
2022-12-25T03:13:34.719Z,71.95
2022-12-25T03:17:37.155Z,71.84
2022-12-25T03:21:59.647Z,71.86
2022-12-25T03:26:21.598Z,71.64
2022-12-25T03:30:46.523Z,71.34
2022-12-25T03:35:17.331Z,71.22
2022-12-25T03:39:47.679Z,71.56
2022-12-25T03:44:12.696Z,72.18
2022-12-25T03:48:44.249Z,71.46
2022-12-25T03:53:06.959Z,71.90
2022-12-25T03:57:29.961Z,71.84
2022-12-25T04:01:50.550Z,72.75
2022-12-25T04:06:11.261Z,71.99
2022-12-25T04:10:31.808Z,72.15
2022-12-25T04:14:54.133Z,72.23
2022-12-25T04:19:14.991Z,72.45
2022-12-25T04:23:35.606Z,72.71
2022-12-25T04:27:56.281Z,72.67
2022-12-25T04:32:18.011Z,72.84
2022-12-25T04:36:21.427Z,72.55
2022-12-25T04:40:24.824Z,72.80
2022-12-25T04:44:28.225Z,72.79
2022-12-25T04:48:35.060Z,72.49
2022-12-25T04:52:38.798Z,72.84
2022-12-25T04:56:45.766Z,72.81
2022-12-25T05:00:50.585Z,72.80
2022-12-25T05:04:54.981Z,73.05
2022-12-25T05:08:58.238Z,72.74
2022-12-25T05:13:01.454Z,73.19
2022-12-25T05:17:04.704Z,74.10
2022-12-25T05:21:09.273Z,74.37
2022-12-25T05:25:12.586Z,74.44
2022-12-25T05:29:15.946Z,74.60
2022-12-25T05:33:19.136Z,74.59
2022-12-25T05:37:23.615Z,75.35
2022-12-25T05:41:33.822Z,75.24
2022-12-25T05:45:37.830Z,75.42
2022-12-25T05:49:40.953Z,75.42
2022-12-25T05:53:45.412Z,75.74
2022-12-25T05:57:48.979Z,76.05
2022-12-25T06:01:52.353Z,75.97
2022-12-25T06:05:56.116Z,76.04
2022-12-25T06:10:00.525Z,76.39
2022-12-25T06:14:03.847Z,76.42
2022-12-25T06:18:07.141Z,75.95
2022-12-25T06:22:10.326Z,76.08
2022-12-25T06:26:18.480Z,76.00
2022-12-25T06:30:21.683Z,76.28
2022-12-25T06:34:25.413Z,76.39
2022-12-25T06:38:29.766Z,76.53
2022-12-25T06:42:34.522Z,76.50
2022-12-25T06:46:37.703Z,76.55
2022-12-25T06:50:44.322Z,75.86
2022-12-25T06:54:48.764Z,75.89
2022-12-25T06:58:55.569Z,75.99
2022-12-25T07:02:58.929Z,75.57
2022-12-25T07:07:08.440Z,75.57
2022-12-25T07:11:12.390Z,75.28
2022-12-25T07:15:17.319Z,75.20
2022-12-25T07:19:20.611Z,75.14
2022-12-25T07:23:23.771Z,74.90
2022-12-25T07:27:27.215Z,75.13
2022-12-25T07:31:31.908Z,75.20
2022-12-25T07:35:35.161Z,75.75
2022-12-25T07:39:39.210Z,75.69
2022-12-25T07:43:43.003Z,76.07
2022-12-25T07:47:47.933Z,76.19
2022-12-25T07:51:50.915Z,75.85
2022-12-25T07:56:01.162Z,75.97
2022-12-25T08:00:07.750Z,75.95
2022-12-25T08:04:13.026Z,75.74
2022-12-25T08:08:16.096Z,75.52
2022-12-25T08:12:19.490Z,75.22
2022-12-25T08:16:23.091Z,75.37
2022-12-25T08:20:27.809Z,75.32
2022-12-25T08:24:31.213Z,75.59
2022-12-25T08:28:35.906Z,75.51
2022-12-25T08:32:39.215Z,75.45
2022-12-25T08:36:43.691Z,75.63
2022-12-25T08:40:47.028Z,75.84
2022-12-25T08:44:50.329Z,75.16
2022-12-25T08:48:53.716Z,75.08
2022-12-25T08:52:58.410Z,74.89
2022-12-25T08:57:03.057Z,74.61
2022-12-25T09:01:08.213Z,74.29
2022-12-25T09:05:12.011Z,73.74
2022-12-25T09:09:16.540Z,72.94
2022-12-25T09:13:19.528Z,72.84
2022-12-25T09:17:22.743Z,73.04
2022-12-25T09:21:25.963Z,72.95
2022-12-25T09:25:30.568Z,72.40
2022-12-25T09:29:33.692Z,71.63
2022-12-25T09:33:36.796Z,71.71
2022-12-25T09:37:40.661Z,70.85
2022-12-25T09:41:55.097Z,70.53
2022-12-25T09:46:00.179Z,69.43
2022-12-25T09:50:09.179Z,70.13
2022-12-25T09:54:18.040Z,70.16
2022-12-25T09:58:22.755Z,69.84
2022-12-25T10:02:56.701Z,71.09
2022-12-25T10:07:11.894Z,69.78
2022-12-25T10:11:25.174Z,68.89
2022-12-25T10:15:39.234Z,68.48
2022-12-25T10:19:54.693Z,68.44
2022-12-25T10:24:08.487Z,69.00
2022-12-25T10:33:36.137Z,67.03
2022-12-25T10:37:39.907Z,66.46
2022-12-25T10:41:58.237Z,66.71
2022-12-25T10:46:01.530Z,65.22
2022-12-25T10:50:13.078Z,65.88
2022-12-25T10:54:23.083Z,66.52
2022-12-25T10:58:26.400Z,63.93
2022-12-25T11:02:32.296Z,64.05
2022-12-25T11:06:37.161Z,63.59
2022-12-25T11:10:44.475Z,62.78
2022-12-25T11:14:55.549Z,63.17
2022-12-25T11:18:59.972Z,60.75
2022-12-25T11:23:11.518Z,62.65
2022-12-25T11:27:23.840Z,62.52
2022-12-25T11:31:33.992Z,61.84
2022-12-25T11:35:47.993Z,61.74
2022-12-25T11:39:52.770Z,60.35
2022-12-25T11:43:59.665Z,61.28
2022-12-25T11:48:08.878Z,61.95
2022-12-25T11:52:14.960Z,60.92
2022-12-25T11:56:23.169Z,61.12
2022-12-25T12:00:26.913Z,60.55
2022-12-25T12:04:42.054Z,60.92
2022-12-25T12:08:49.345Z,60.04
2022-12-25T12:13:00.184Z,60.34
2022-12-25T12:17:03.555Z,59.71
2022-12-25T12:21:20.945Z,59.91
2022-12-25T12:25:24.547Z,59.38
2022-12-25T12:29:31.471Z,59.68
2022-12-25T12:33:38.859Z,59.72
2022-12-25T12:37:43.485Z,59.52
2022-12-25T12:41:49.698Z,60.10
2022-12-25T12:45:59.477Z,61.17
2022-12-25T12:50:03.568Z,59.78
2022-12-25T12:54:18.476Z,60.57
2022-12-25T12:58:31.292Z,61.33
2022-12-25T13:03:02.192Z,62.36
2022-12-25T13:07:13.654Z,61.49
2022-12-25T13:11:21.547Z,61.27
2022-12-25T13:15:28.470Z,60.72
2022-12-25T13:19:33.246Z,59.79
2022-12-25T13:23:39.438Z,60.73
2022-12-25T13:27:42.493Z,59.98
2022-12-25T13:31:45.766Z,60.13
2022-12-25T13:35:50.509Z,60.98
2022-12-25T13:39:56.940Z,61.27
2022-12-25T13:44:00.641Z,60.99
2022-12-25T13:48:15.962Z,62.28
2022-12-25T13:52:23.979Z,61.71
2022-12-25T13:56:27.381Z,62.04
2022-12-25T14:00:34.883Z,63.07
2022-12-25T14:04:45.541Z,63.79
2022-12-25T14:08:51.321Z,63.15
2022-12-25T14:12:57.555Z,63.42
2022-12-25T14:17:01.362Z,63.52
2022-12-25T14:21:07.520Z,64.76
2022-12-25T14:25:17.708Z,65.35
2022-12-25T14:29:26.583Z,65.06
2022-12-25T14:33:40.109Z,64.97
2022-12-25T14:37:43.972Z,64.53
2022-12-25T14:41:54.714Z,65.25
2022-12-25T14:46:00.272Z,64.32
2022-12-25T14:50:14.079Z,65.05
2022-12-25T14:54:20.880Z,65.48
2022-12-25T14:58:28.634Z,65.80
2022-12-25T15:02:44.799Z,66.20
2022-12-25T15:06:55.414Z,66.02
2022-12-25T15:11:01.799Z,65.95
2022-12-25T15:15:08.318Z,66.46
2022-12-25T15:19:14.584Z,66.54
2022-12-25T15:23:20.043Z,66.97
2022-12-25T15:27:24.248Z,67.33
2022-12-25T15:31:31.432Z,67.14
2022-12-25T15:35:34.910Z,67.86
2022-12-25T15:39:38.497Z,68.52
2022-12-25T15:43:41.831Z,68.93
2022-12-25T15:47:46.425Z,69.22
2022-12-25T15:51:49.665Z,69.23
2022-12-25T15:55:52.937Z,69.29
2022-12-25T15:59:56.230Z,69.27
2022-12-25T16:04:00.963Z,69.61
2022-12-25T16:08:03.898Z,69.75
2022-12-25T16:12:07.520Z,69.83
2022-12-25T16:16:10.832Z,70.28
2022-12-25T16:20:15.889Z,70.05
2022-12-25T16:24:18.971Z,70.25
2022-12-25T16:28:22.532Z,70.95
2022-12-25T16:32:25.799Z,71.25
2022-12-25T16:36:30.499Z,71.55
2022-12-25T16:40:33.514Z,71.71
2022-12-25T16:44:38.637Z,72.12
2022-12-25T16:48:41.948Z,71.98
2022-12-25T16:52:46.464Z,72.15
2022-12-25T16:56:49.490Z,72.46
2022-12-25T17:00:52.630Z,73.15
2022-12-25T17:04:56.045Z,73.56
2022-12-25T17:09:02.853Z,73.87
2022-12-25T17:13:05.977Z,73.96
2022-12-25T17:17:09.203Z,73.88
2022-12-25T17:21:14.854Z,73.54
2022-12-25T17:25:19.725Z,73.43
2022-12-25T17:29:23.215Z,73.76
2022-12-25T17:33:26.310Z,73.59
2022-12-25T17:37:29.640Z,73.41
2022-12-25T17:41:35.091Z,73.41
2022-12-25T17:45:38.634Z,73.57
2022-12-25T17:49:42.878Z,74.10
2022-12-25T17:53:48.731Z,74.20
2022-12-25T17:57:53.316Z,74.56
2022-12-25T18:01:57.041Z,74.53
2022-12-25T18:06:01.686Z,74.44
2022-12-25T18:10:05.275Z,75.39
2022-12-25T18:14:12.722Z,75.61
2022-12-25T18:18:16.035Z,75.80
2022-12-25T18:22:19.363Z,75.85
2022-12-25T18:26:22.858Z,75.93
2022-12-25T18:30:27.545Z,75.43
2022-12-25T18:34:31.807Z,75.34
2022-12-25T18:38:35.715Z,74.87
2022-12-25T18:42:42.495Z,75.04
2022-12-25T18:46:47.123Z,74.64
2022-12-25T18:50:56.496Z,74.66
2022-12-25T18:54:59.610Z,74.29
2022-12-25T18:59:03.313Z,74.42
2022-12-25T19:03:08.250Z,74.70
2022-12-25T19:07:12.466Z,74.17
2022-12-25T19:11:16.076Z,74.26
2022-12-25T19:15:20.693Z,75.06
2022-12-25T19:19:26.269Z,75.27
2022-12-25T19:23:29.880Z,75.51
2022-12-25T19:27:33.203Z,75.74
2022-12-25T19:31:39.086Z,75.91
2022-12-25T19:35:43.957Z,75.65
2022-12-25T19:39:47.991Z,75.34
2022-12-25T19:43:52.551Z,75.34
2022-12-25T19:47:56.243Z,75.21
2022-12-25T19:52:01.403Z,75.44
2022-12-25T19:56:05.474Z,75.96
2022-12-25T20:00:10.956Z,75.76
2022-12-25T20:04:14.874Z,75.96
2022-12-25T20:08:19.806Z,76.21
2022-12-25T20:12:23.570Z,76.46
2022-12-25T20:16:27.435Z,76.52
2022-12-25T20:20:31.364Z,76.75
2022-12-25T20:24:36.424Z,77.10
2022-12-25T20:28:41.924Z,77.08
2022-12-25T20:32:50.326Z,77.08
2022-12-25T20:36:56.673Z,76.82
2022-12-25T20:45:27.789Z,77.00
2022-12-25T20:49:32.947Z,76.39
2022-12-25T20:53:37.834Z,76.68
2022-12-25T20:57:42.676Z,75.36
2022-12-25T21:01:46.359Z,75.96
2022-12-25T21:05:52.864Z,76.06
2022-12-25T21:09:56.029Z,76.35
2022-12-25T21:14:00.661Z,76.15
2022-12-25T21:18:04.266Z,76.79
2022-12-25T21:22:07.677Z,76.92
2022-12-25T21:26:17.172Z,77.18
2022-12-25T21:30:21.614Z,77.04
2022-12-25T21:34:24.910Z,76.37
2022-12-25T21:38:28.030Z,76.43
2022-12-25T21:42:31.611Z,76.12
2022-12-25T21:46:36.603Z,75.77
2022-12-25T21:50:57.136Z,76.86
2022-12-25T21:55:00.493Z,77.12
2022-12-25T21:59:05.921Z,77.67
2022-12-25T22:03:10.322Z,77.87
2022-12-25T22:07:20.375Z,77.19
2022-12-25T22:11:41.112Z,77.08
2022-12-25T22:16:01.589Z,76.86
2022-12-25T22:20:08.706Z,75.70
2022-12-25T22:24:13.733Z,75.21
2022-12-25T22:28:16.753Z,74.85
2022-12-25T22:32:31.111Z,74.79
2022-12-25T22:36:36.137Z,75.55
2022-12-25T22:40:39.238Z,76.73
2022-12-25T22:44:42.691Z,76.43
2022-12-25T22:48:45.751Z,76.80
2022-12-25T22:52:50.539Z,76.73
2022-12-25T22:56:54.385Z,77.04
2022-12-25T23:00:57.954Z,76.31
2022-12-25T23:05:01.369Z,77.02
2022-12-25T23:09:07.533Z,76.99
2022-12-25T23:13:28.277Z,76.79
2022-12-25T23:17:49.015Z,76.49
2022-12-25T23:22:24.203Z,76.49
2022-12-25T23:26:28.690Z,76.57
2022-12-25T23:30:31.907Z,76.20
2022-12-25T23:34:35.630Z,75.90
2022-12-25T23:38:38.984Z,75.83
2022-12-25T23:42:43.633Z,76.50
2022-12-25T23:46:52.728Z,75.69
2022-12-25T23:50:56.930Z,76.07
2022-12-25T23:55:00.018Z,76.12
2022-12-25T23:59:05.042Z,75.87
